sensor_id;sensor_type;location;lat;lon;timestamp;temperature;humidity
5689;DHT22;2869;50.432;8.680;2024-02-23T00:02:24;7.90;99.90
5689;DHT22;2869;50.432;8.680;2024-02-23T00:04:51;7.90;99.90
5689;DHT22;2869;50.432;8.680;2024-02-23T00:07:18;7.80;99.90
5689;DHT22;2869;50.432;8.680;2024-02-23T00:09:46;7.70;99.90
5689;DHT22;2869;50.432;8.680;2024-02-23T00:12:12;7.70;99.90
5689;DHT22;2869;50.432;8.680;2024-02-23T00:14:39;7.70;99.90
5689;DHT22;2869;50.432;8.680;2024-02-23T00:17:06;7.70;99.90
5689;DHT22;2869;50.432;8.680;2024-02-23T00:19:32;7.70;99.90
5689;DHT22;2869;50.432;8.680;2024-02-23T00:21:59;7.70;99.90
5689;DHT22;2869;50.432;8.680;2024-02-23T00:24:25;7.70;99.90
5689;DHT22;2869;50.432;8.680;2024-02-23T00:26:53;7.70;99.90
5689;DHT22;2869;50.432;8.680;2024-02-23T00:29:19;7.70;99.90
5689;DHT22;2869;50.432;8.680;2024-02-23T00:31:46;7.70;99.90
5689;DHT22;2869;50.432;8.680;2024-02-23T00:34:13;7.60;99.90
5689;DHT22;2869;50.432;8.680;2024-02-23T00:36:40;7.60;99.90
5689;DHT22;2869;50.432;8.680;2024-02-23T00:39:07;7.60;99.90
5689;DHT22;2869;50.432;8.680;2024-02-23T00:41:34;7.50;99.90
5689;DHT22;2869;50.432;8.680;2024-02-23T00:44:02;7.50;99.90
5689;DHT22;2869;50.432;8.680;2024-02-23T00:46:29;7.40;99.90
5689;DHT22;2869;50.432;8.680;2024-02-23T00:48:55;7.40;99.90
5689;DHT22;2869;50.432;8.680;2024-02-23T00:51:22;7.40;99.90
5689;DHT22;2869;50.432;8.680;2024-02-23T00:53:48;7.40;99.90
5689;DHT22;2869;50.432;8.680;2024-02-23T00:56:15;7.40;99.90
5689;DHT22;2869;50.432;8.680;2024-02-23T00:58:41;7.20;99.90
5689;DHT22;2869;50.432;8.680;2024-02-23T01:01:09;7.30;99.90
5689;DHT22;2869;50.432;8.680;2024-02-23T01:03:36;7.30;99.90
5689;DHT22;2869;50.432;8.680;2024-02-23T01:06:04;7.20;99.90
5689;DHT22;2869;50.432;8.680;2024-02-23T01:08:30;7.10;99.90
5689;DHT22;2869;50.432;8.680;2024-02-23T01:10:57;7.10;99.90
5689;DHT22;2869;50.432;8.680;2024-02-23T01:13:24;7.00;99.90
5689;DHT22;2869;50.432;8.680;2024-02-23T01:15:50;6.80;99.90
5689;DHT22;2869;50.432;8.680;2024-02-23T01:18:20;6.70;99.90
5689;DHT22;2869;50.432;8.680;2024-02-23T01:20:46;6.70;99.90
5689;DHT22;2869;50.432;8.680;2024-02-23T01:23:13;6.50;99.90
5689;DHT22;2869;50.432;8.680;2024-02-23T01:25:39;6.40;99.90
5689;DHT22;2869;50.432;8.680;2024-02-23T01:28:06;6.30;99.90
5689;DHT22;2869;50.432;8.680;2024-02-23T01:30:32;6.30;99.90
5689;DHT22;2869;50.432;8.680;2024-02-23T01:32:59;6.20;99.90
5689;DHT22;2869;50.432;8.680;2024-02-23T01:35:27;6.10;99.90
5689;DHT22;2869;50.432;8.680;2024-02-23T01:37:55;6.10;99.90
5689;DHT22;2869;50.432;8.680;2024-02-23T01:40:21;6.00;99.90
5689;DHT22;2869;50.432;8.680;2024-02-23T01:42:48;6.00;99.90
5689;DHT22;2869;50.432;8.680;2024-02-23T01:45:15;6.00;99.90
5689;DHT22;2869;50.432;8.680;2024-02-23T01:47:41;5.90;99.90
5689;DHT22;2869;50.432;8.680;2024-02-23T01:50:08;5.90;99.90
5689;DHT22;2869;50.432;8.680;2024-02-23T01:52:39;5.80;99.90
5689;DHT22;2869;50.432;8.680;2024-02-23T01:55:06;5.80;99.90
5689;DHT22;2869;50.432;8.680;2024-02-23T01:57:32;5.80;99.90
5689;DHT22;2869;50.432;8.680;2024-02-23T01:59:59;5.80;99.90
5689;DHT22;2869;50.432;8.680;2024-02-23T02:02:26;5.80;99.90
5689;DHT22;2869;50.432;8.680;2024-02-23T02:04:53;5.70;99.90
5689;DHT22;2869;50.432;8.680;2024-02-23T02:07:19;5.70;99.90
5689;DHT22;2869;50.432;8.680;2024-02-23T02:09:49;5.70;99.90
5689;DHT22;2869;50.432;8.680;2024-02-23T02:12:25;5.70;99.90
5689;DHT22;2869;50.432;8.680;2024-02-23T02:14:52;5.70;99.90
5689;DHT22;2869;50.432;8.680;2024-02-23T02:17:19;5.70;99.90
5689;DHT22;2869;50.432;8.680;2024-02-23T02:19:46;5.60;99.90
5689;DHT22;2869;50.432;8.680;2024-02-23T02:22:12;5.60;99.90
5689;DHT22;2869;50.432;8.680;2024-02-23T02:24:39;5.70;99.90
5689;DHT22;2869;50.432;8.680;2024-02-23T02:27:09;5.60;99.90
5689;DHT22;2869;50.432;8.680;2024-02-23T02:29:35;5.60;99.90
5689;DHT22;2869;50.432;8.680;2024-02-23T02:32:02;5.50;99.90
5689;DHT22;2869;50.432;8.680;2024-02-23T02:34:28;5.50;99.90
5689;DHT22;2869;50.432;8.680;2024-02-23T02:36:55;5.50;99.90
5689;DHT22;2869;50.432;8.680;2024-02-23T02:39:22;5.50;99.90
5689;DHT22;2869;50.432;8.680;2024-02-23T02:41:48;5.50;99.90
5689;DHT22;2869;50.432;8.680;2024-02-23T02:44:16;5.40;99.90
5689;DHT22;2869;50.432;8.680;2024-02-23T02:46:42;5.40;99.90
5689;DHT22;2869;50.432;8.680;2024-02-23T02:49:09;5.40;99.90
5689;DHT22;2869;50.432;8.680;2024-02-23T02:51:36;5.40;99.90
5689;DHT22;2869;50.432;8.680;2024-02-23T02:54:02;5.30;99.90
5689;DHT22;2869;50.432;8.680;2024-02-23T02:56:29;5.30;99.90
5689;DHT22;2869;50.432;8.680;2024-02-23T02:58:55;5.30;99.90
5689;DHT22;2869;50.432;8.680;2024-02-23T03:01:23;5.30;99.90
5689;DHT22;2869;50.432;8.680;2024-02-23T03:03:50;5.20;99.90
5689;DHT22;2869;50.432;8.680;2024-02-23T03:06:16;5.20;99.90
5689;DHT22;2869;50.432;8.680;2024-02-23T03:08:42;5.20;99.90
5689;DHT22;2869;50.432;8.680;2024-02-23T03:11:09;5.20;99.90
5689;DHT22;2869;50.432;8.680;2024-02-23T03:13:35;5.20;99.90
5689;DHT22;2869;50.432;8.680;2024-02-23T03:16:02;5.10;99.90
5689;DHT22;2869;50.432;8.680;2024-02-23T03:18:30;5.20;99.90
5689;DHT22;2869;50.432;8.680;2024-02-23T03:20:57;5.20;99.90
5689;DHT22;2869;50.432;8.680;2024-02-23T03:23:23;5.10;99.90
5689;DHT22;2869;50.432;8.680;2024-02-23T03:25:49;5.10;99.90
5689;DHT22;2869;50.432;8.680;2024-02-23T03:28:16;5.20;99.90
5689;DHT22;2869;50.432;8.680;2024-02-23T03:30:42;5.10;99.90
5689;DHT22;2869;50.432;8.680;2024-02-23T03:33:09;5.10;99.90
5689;DHT22;2869;50.432;8.680;2024-02-23T03:35:37;5.10;99.90
5689;DHT22;2869;50.432;8.680;2024-02-23T03:38:03;5.10;99.90
5689;DHT22;2869;50.432;8.680;2024-02-23T03:40:30;5.10;99.90
5689;DHT22;2869;50.432;8.680;2024-02-23T03:42:56;5.10;99.90
5689;DHT22;2869;50.432;8.680;2024-02-23T03:45:23;5.10;99.90
5689;DHT22;2869;50.432;8.680;2024-02-23T03:47:49;5.10;99.90
5689;DHT22;2869;50.432;8.680;2024-02-23T03:50:16;5.10;99.90
5689;DHT22;2869;50.432;8.680;2024-02-23T03:52:44;5.10;99.90
5689;DHT22;2869;50.432;8.680;2024-02-23T03:55:10;5.10;99.90
5689;DHT22;2869;50.432;8.680;2024-02-23T03:57:37;5.10;99.90
5689;DHT22;2869;50.432;8.680;2024-02-23T04:00:04;5.10;99.90
5689;DHT22;2869;50.432;8.680;2024-02-23T04:02:31;5.10;99.90
5689;DHT22;2869;50.432;8.680;2024-02-23T04:04:57;5.00;99.90
5689;DHT22;2869;50.432;8.680;2024-02-23T04:07:24;5.00;99.90
5689;DHT22;2869;50.432;8.680;2024-02-23T04:09:52;5.00;99.90
5689;DHT22;2869;50.432;8.680;2024-02-23T04:12:20;5.00;99.90
5689;DHT22;2869;50.432;8.680;2024-02-23T04:14:47;5.00;99.90
5689;DHT22;2869;50.432;8.680;2024-02-23T04:17:13;5.00;99.90
5689;DHT22;2869;50.432;8.680;2024-02-23T04:19:40;5.00;99.90
5689;DHT22;2869;50.432;8.680;2024-02-23T04:22:07;5.00;99.90
5689;DHT22;2869;50.432;8.680;2024-02-23T04:24:35;5.00;99.90
5689;DHT22;2869;50.432;8.680;2024-02-23T04:27:03;5.00;99.90
5689;DHT22;2869;50.432;8.680;2024-02-23T04:29:30;5.00;99.90
5689;DHT22;2869;50.432;8.680;2024-02-23T04:31:57;5.00;99.90
5689;DHT22;2869;50.432;8.680;2024-02-23T04:34:23;4.90;99.90
5689;DHT22;2869;50.432;8.680;2024-02-23T04:36:50;4.90;99.90
5689;DHT22;2869;50.432;8.680;2024-02-23T04:39:16;4.90;99.90
5689;DHT22;2869;50.432;8.680;2024-02-23T04:41:43;4.80;99.90
5689;DHT22;2869;50.432;8.680;2024-02-23T04:44:11;4.80;99.90
5689;DHT22;2869;50.432;8.680;2024-02-23T04:46:37;4.60;99.90
5689;DHT22;2869;50.432;8.680;2024-02-23T04:49:04;4.60;99.90
5689;DHT22;2869;50.432;8.680;2024-02-23T04:51:30;4.60;99.90
5689;DHT22;2869;50.432;8.680;2024-02-23T04:53:57;4.50;99.90
5689;DHT22;2869;50.432;8.680;2024-02-23T04:56:23;4.50;99.90
5689;DHT22;2869;50.432;8.680;2024-02-23T04:58:50;4.50;99.90
5689;DHT22;2869;50.432;8.680;2024-02-23T05:01:18;4.50;99.90
5689;DHT22;2869;50.432;8.680;2024-02-23T05:03:45;4.50;99.90
5689;DHT22;2869;50.432;8.680;2024-02-23T05:06:11;4.50;99.90
5689;DHT22;2869;50.432;8.680;2024-02-23T05:08:38;4.40;99.90
5689;DHT22;2869;50.432;8.680;2024-02-23T05:11:04;4.40;99.90
5689;DHT22;2869;50.432;8.680;2024-02-23T05:13:31;4.40;99.90
5689;DHT22;2869;50.432;8.680;2024-02-23T05:15:57;4.40;99.90
5689;DHT22;2869;50.432;8.680;2024-02-23T05:18:25;4.40;99.90
5689;DHT22;2869;50.432;8.680;2024-02-23T05:20:52;4.40;99.90
5689;DHT22;2869;50.432;8.680;2024-02-23T05:23:18;4.40;99.90
5689;DHT22;2869;50.432;8.680;2024-02-23T05:25:45;4.50;99.90
5689;DHT22;2869;50.432;8.680;2024-02-23T05:28:11;4.50;99.90
5689;DHT22;2869;50.432;8.680;2024-02-23T05:30:38;4.50;99.90
5689;DHT22;2869;50.432;8.680;2024-02-23T05:33:04;4.50;99.90
5689;DHT22;2869;50.432;8.680;2024-02-23T05:35:32;4.60;99.90
5689;DHT22;2869;50.432;8.680;2024-02-23T05:37:58;4.60;99.90
5689;DHT22;2869;50.432;8.680;2024-02-23T05:40:25;4.70;99.90
5689;DHT22;2869;50.432;8.680;2024-02-23T05:42:51;4.70;99.90
5689;DHT22;2869;50.432;8.680;2024-02-23T05:45:18;4.70;99.90
5689;DHT22;2869;50.432;8.680;2024-02-23T05:47:45;4.70;99.90
5689;DHT22;2869;50.432;8.680;2024-02-23T05:50:11;4.70;99.90
5689;DHT22;2869;50.432;8.680;2024-02-23T05:52:39;4.70;99.90
5689;DHT22;2869;50.432;8.680;2024-02-23T05:55:06;4.80;99.90
5689;DHT22;2869;50.432;8.680;2024-02-23T05:57:33;4.70;99.90
5689;DHT22;2869;50.432;8.680;2024-02-23T05:59:59;4.70;99.90
5689;DHT22;2869;50.432;8.680;2024-02-23T06:02:26;4.70;99.90
5689;DHT22;2869;50.432;8.680;2024-02-23T06:04:52;4.70;99.90
5689;DHT22;2869;50.432;8.680;2024-02-23T06:07:19;4.60;99.90
5689;DHT22;2869;50.432;8.680;2024-02-23T06:09:53;4.70;99.90
5689;DHT22;2869;50.432;8.680;2024-02-23T06:12:20;4.60;99.90
5689;DHT22;2869;50.432;8.680;2024-02-23T06:14:46;4.60;99.90
5689;DHT22;2869;50.432;8.680;2024-02-23T06:17:13;4.70;99.90
5689;DHT22;2869;50.432;8.680;2024-02-23T06:19:38;4.60;99.90
5689;DHT22;2869;50.432;8.680;2024-02-23T06:22:05;4.50;99.90
5689;DHT22;2869;50.432;8.680;2024-02-23T06:24:31;4.50;99.90
5689;DHT22;2869;50.432;8.680;2024-02-23T06:26:59;4.40;99.90
5689;DHT22;2869;50.432;8.680;2024-02-23T06:29:26;4.40;99.90
5689;DHT22;2869;50.432;8.680;2024-02-23T06:31:52;4.40;99.90
5689;DHT22;2869;50.432;8.680;2024-02-23T06:34:19;4.30;99.90
5689;DHT22;2869;50.432;8.680;2024-02-23T06:36:45;4.30;99.90
5689;DHT22;2869;50.432;8.680;2024-02-23T06:39:12;4.30;99.90
5689;DHT22;2869;50.432;8.680;2024-02-23T06:41:38;4.20;99.90
5689;DHT22;2869;50.432;8.680;2024-02-23T06:44:06;4.20;99.90
5689;DHT22;2869;50.432;8.680;2024-02-23T06:46:33;4.20;99.90
5689;DHT22;2869;50.432;8.680;2024-02-23T06:48:59;4.20;99.90
5689;DHT22;2869;50.432;8.680;2024-02-23T06:51:26;4.20;99.90
5689;DHT22;2869;50.432;8.680;2024-02-23T06:53:52;4.20;99.90
5689;DHT22;2869;50.432;8.680;2024-02-23T06:56:19;4.10;99.90
5689;DHT22;2869;50.432;8.680;2024-02-23T06:58:45;4.20;99.90
5689;DHT22;2869;50.432;8.680;2024-02-23T07:01:13;4.10;99.90
5689;DHT22;2869;50.432;8.680;2024-02-23T07:03:40;4.10;99.90
5689;DHT22;2869;50.432;8.680;2024-02-23T07:06:08;4.20;99.90
5689;DHT22;2869;50.432;8.680;2024-02-23T07:08:35;4.20;99.90
5689;DHT22;2869;50.432;8.680;2024-02-23T07:11:02;4.20;99.90
5689;DHT22;2869;50.432;8.680;2024-02-23T07:13:28;4.20;99.90
5689;DHT22;2869;50.432;8.680;2024-02-23T07:15:55;4.20;99.90
5689;DHT22;2869;50.432;8.680;2024-02-23T07:18:23;4.30;99.90
5689;DHT22;2869;50.432;8.680;2024-02-23T07:20:50;4.30;99.90
5689;DHT22;2869;50.432;8.680;2024-02-23T07:23:16;4.40;99.90
5689;DHT22;2869;50.432;8.680;2024-02-23T07:25:43;4.40;99.90
5689;DHT22;2869;50.432;8.680;2024-02-23T07:28:09;4.50;99.90
5689;DHT22;2869;50.432;8.680;2024-02-23T07:30:36;4.50;99.90
5689;DHT22;2869;50.432;8.680;2024-02-23T07:33:03;4.50;99.90
5689;DHT22;2869;50.432;8.680;2024-02-23T07:35:30;4.50;99.90
5689;DHT22;2869;50.432;8.680;2024-02-23T07:37:57;4.50;99.90
5689;DHT22;2869;50.432;8.680;2024-02-23T07:40:23;4.50;99.90
5689;DHT22;2869;50.432;8.680;2024-02-23T07:42:50;4.50;99.90
5689;DHT22;2869;50.432;8.680;2024-02-23T07:45:16;4.50;99.90
5689;DHT22;2869;50.432;8.680;2024-02-23T07:47:43;4.50;99.90
5689;DHT22;2869;50.432;8.680;2024-02-23T07:50:10;5.20;99.90
5689;DHT22;2869;50.432;8.680;2024-02-23T07:52:39;6.40;99.90
5689;DHT22;2869;50.432;8.680;2024-02-23T07:55:06;6.80;99.90
5689;DHT22;2869;50.432;8.680;2024-02-23T07:57:33;6.80;99.90
5689;DHT22;2869;50.432;8.680;2024-02-23T08:00:00;6.80;99.90
5689;DHT22;2869;50.432;8.680;2024-02-23T08:02:26;6.40;99.90
5689;DHT22;2869;50.432;8.680;2024-02-23T08:04:53;6.10;99.90
5689;DHT22;2869;50.432;8.680;2024-02-23T08:07:19;5.80;99.90
5689;DHT22;2869;50.432;8.680;2024-02-23T08:09:47;5.50;99.90
5689;DHT22;2869;50.432;8.680;2024-02-23T08:12:14;5.30;99.90
5689;DHT22;2869;50.432;8.680;2024-02-23T08:14:41;5.20;99.90
5689;DHT22;2869;50.432;8.680;2024-02-23T08:17:10;5.10;99.90
5689;DHT22;2869;50.432;8.680;2024-02-23T08:19:36;5.10;99.90
5689;DHT22;2869;50.432;8.680;2024-02-23T08:22:03;5.20;99.90
5689;DHT22;2869;50.432;8.680;2024-02-23T08:24:29;5.20;99.90
5689;DHT22;2869;50.432;8.680;2024-02-23T08:26:58;5.30;99.90
5689;DHT22;2869;50.432;8.680;2024-02-23T08:29:25;5.30;99.90
5689;DHT22;2869;50.432;8.680;2024-02-23T08:31:51;5.40;99.90
5689;DHT22;2869;50.432;8.680;2024-02-23T08:34:18;5.40;99.90
5689;DHT22;2869;50.432;8.680;2024-02-23T08:36:44;5.40;99.90
5689;DHT22;2869;50.432;8.680;2024-02-23T08:39:11;5.50;99.90
5689;DHT22;2869;50.432;8.680;2024-02-23T08:41:38;5.40;99.90
5689;DHT22;2869;50.432;8.680;2024-02-23T08:44:06;5.40;99.90
5689;DHT22;2869;50.432;8.680;2024-02-23T08:46:32;5.40;99.90
5689;DHT22;2869;50.432;8.680;2024-02-23T08:48:59;5.40;99.90
5689;DHT22;2869;50.432;8.680;2024-02-23T08:51:25;5.40;99.90
5689;DHT22;2869;50.432;8.680;2024-02-23T08:53:52;5.50;99.90
5689;DHT22;2869;50.432;8.680;2024-02-23T08:56:19;5.50;99.90
5689;DHT22;2869;50.432;8.680;2024-02-23T08:58:46;5.50;99.90
5689;DHT22;2869;50.432;8.680;2024-02-23T09:01:14;5.50;99.90
5689;DHT22;2869;50.432;8.680;2024-02-23T09:03:40;5.50;99.90
5689;DHT22;2869;50.432;8.680;2024-02-23T09:06:07;5.50;99.90
5689;DHT22;2869;50.432;8.680;2024-02-23T09:08:34;5.50;99.90
5689;DHT22;2869;50.432;8.680;2024-02-23T09:11:00;5.60;99.90
5689;DHT22;2869;50.432;8.680;2024-02-23T09:13:27;5.60;99.90
5689;DHT22;2869;50.432;8.680;2024-02-23T09:15:55;5.70;99.90
5689;DHT22;2869;50.432;8.680;2024-02-23T09:18:22;5.70;99.90
5689;DHT22;2869;50.432;8.680;2024-02-23T09:20:49;5.70;99.90
5689;DHT22;2869;50.432;8.680;2024-02-23T09:23:15;5.80;99.90
5689;DHT22;2869;50.432;8.680;2024-02-23T09:25:43;6.10;99.90
5689;DHT22;2869;50.432;8.680;2024-02-23T09:28:09;6.20;99.90
5689;DHT22;2869;50.432;8.680;2024-02-23T09:30:36;6.30;99.90
5689;DHT22;2869;50.432;8.680;2024-02-23T09:33:03;6.30;99.90
5689;DHT22;2869;50.432;8.680;2024-02-23T09:35:31;6.50;99.90
5689;DHT22;2869;50.432;8.680;2024-02-23T09:37:57;6.70;99.90
5689;DHT22;2869;50.432;8.680;2024-02-23T09:40:24;6.80;99.90
5689;DHT22;2869;50.432;8.680;2024-02-23T09:42:51;6.70;99.90
5689;DHT22;2869;50.432;8.680;2024-02-23T09:45:20;7.10;99.90
5689;DHT22;2869;50.432;8.680;2024-02-23T09:47:47;7.20;99.90
5689;DHT22;2869;50.432;8.680;2024-02-23T09:50:14;7.30;99.90
5689;DHT22;2869;50.432;8.680;2024-02-23T09:52:42;7.30;99.90
5689;DHT22;2869;50.432;8.680;2024-02-23T09:55:09;7.60;99.90
5689;DHT22;2869;50.432;8.680;2024-02-23T09:57:35;7.60;99.90
5689;DHT22;2869;50.432;8.680;2024-02-23T10:00:03;7.70;99.90
5689;DHT22;2869;50.432;8.680;2024-02-23T10:02:31;8.00;99.90
5689;DHT22;2869;50.432;8.680;2024-02-23T10:04:59;8.40;99.90
5689;DHT22;2869;50.432;8.680;2024-02-23T10:07:26;8.90;99.90
5689;DHT22;2869;50.432;8.680;2024-02-23T10:09:54;8.80;99.90
5689;DHT22;2869;50.432;8.680;2024-02-23T10:12:21;8.50;99.90
5689;DHT22;2869;50.432;8.680;2024-02-23T10:14:47;8.50;99.90
5689;DHT22;2869;50.432;8.680;2024-02-23T10:17:14;8.80;99.90
5689;DHT22;2869;50.432;8.680;2024-02-23T10:19:40;9.00;99.90
5689;DHT22;2869;50.432;8.680;2024-02-23T10:22:07;9.30;99.90
5689;DHT22;2869;50.432;8.680;2024-02-23T10:24:33;8.90;99.90
5689;DHT22;2869;50.432;8.680;2024-02-23T10:27:01;8.80;99.90
5689;DHT22;2869;50.432;8.680;2024-02-23T10:29:28;8.70;99.90
5689;DHT22;2869;50.432;8.680;2024-02-23T10:31:55;8.70;99.90
5689;DHT22;2869;50.432;8.680;2024-02-23T10:34:23;9.00;99.90
5689;DHT22;2869;50.432;8.680;2024-02-23T10:36:50;9.30;99.90
5689;DHT22;2869;50.432;8.680;2024-02-23T10:39:18;9.50;99.90
5689;DHT22;2869;50.432;8.680;2024-02-23T10:41:46;9.60;99.90
5689;DHT22;2869;50.432;8.680;2024-02-23T10:44:14;9.30;99.90
5689;DHT22;2869;50.432;8.680;2024-02-23T10:46:42;9.30;99.90
5689;DHT22;2869;50.432;8.680;2024-02-23T10:49:09;9.30;99.90
5689;DHT22;2869;50.432;8.680;2024-02-23T10:51:37;9.30;99.90
5689;DHT22;2869;50.432;8.680;2024-02-23T10:54:04;9.10;99.90
5689;DHT22;2869;50.432;8.680;2024-02-23T10:56:30;8.70;99.90
5689;DHT22;2869;50.432;8.680;2024-02-23T10:58:57;8.40;99.90
5689;DHT22;2869;50.432;8.680;2024-02-23T11:01:24;8.00;99.90
5689;DHT22;2869;50.432;8.680;2024-02-23T11:03:51;7.90;99.90
5689;DHT22;2869;50.432;8.680;2024-02-23T11:06:18;7.70;99.90
5689;DHT22;2869;50.432;8.680;2024-02-23T11:08:46;7.70;99.90
5689;DHT22;2869;50.432;8.680;2024-02-23T11:11:13;7.70;99.90
5689;DHT22;2869;50.432;8.680;2024-02-23T11:13:43;7.80;99.90
5689;DHT22;2869;50.432;8.680;2024-02-23T11:16:10;7.90;99.90
5689;DHT22;2869;50.432;8.680;2024-02-23T11:18:38;8.00;99.90
5689;DHT22;2869;50.432;8.680;2024-02-23T11:21:05;7.90;99.90
5689;DHT22;2869;50.432;8.680;2024-02-23T11:23:41;8.00;99.90
5689;DHT22;2869;50.432;8.680;2024-02-23T11:26:09;7.90;99.90
5689;DHT22;2869;50.432;8.680;2024-02-23T11:28:41;7.80;99.90
5689;DHT22;2869;50.432;8.680;2024-02-23T11:31:11;7.80;99.90
5689;DHT22;2869;50.432;8.680;2024-02-23T11:33:39;7.80;99.90
5689;DHT22;2869;50.432;8.680;2024-02-23T11:36:05;7.60;99.90
5689;DHT22;2869;50.432;8.680;2024-02-23T11:38:32;7.40;99.90
5689;DHT22;2869;50.432;8.680;2024-02-23T11:40:59;7.40;99.90
5689;DHT22;2869;50.432;8.680;2024-02-23T11:43:25;7.20;99.90
5689;DHT22;2869;50.432;8.680;2024-02-23T11:45:52;7.20;99.90
5689;DHT22;2869;50.432;8.680;2024-02-23T11:48:18;7.30;99.90
5689;DHT22;2869;50.432;8.680;2024-02-23T11:50:49;7.40;99.90
5689;DHT22;2869;50.432;8.680;2024-02-23T11:53:16;7.60;99.90
5689;DHT22;2869;50.432;8.680;2024-02-23T11:55:44;7.80;99.90
5689;DHT22;2869;50.432;8.680;2024-02-23T11:58:11;8.10;99.90
5689;DHT22;2869;50.432;8.680;2024-02-23T12:00:37;8.10;99.90
5689;DHT22;2869;50.432;8.680;2024-02-23T12:03:05;8.00;99.90
5689;DHT22;2869;50.432;8.680;2024-02-23T12:05:32;7.80;99.90
5689;DHT22;2869;50.432;8.680;2024-02-23T12:08:00;7.70;99.90
5689;DHT22;2869;50.432;8.680;2024-02-23T12:10:27;7.60;99.90
5689;DHT22;2869;50.432;8.680;2024-02-23T12:12:53;7.60;99.90
5689;DHT22;2869;50.432;8.680;2024-02-23T12:15:21;7.70;99.90
5689;DHT22;2869;50.432;8.680;2024-02-23T12:17:47;7.60;99.90
5689;DHT22;2869;50.432;8.680;2024-02-23T12:20:14;7.70;99.90
5689;DHT22;2869;50.432;8.680;2024-02-23T12:22:41;7.80;99.90
5689;DHT22;2869;50.432;8.680;2024-02-23T12:25:09;7.80;99.90
5689;DHT22;2869;50.432;8.680;2024-02-23T12:27:35;7.90;99.90
5689;DHT22;2869;50.432;8.680;2024-02-23T12:30:02;8.00;99.90
5689;DHT22;2869;50.432;8.680;2024-02-23T12:32:28;8.10;99.90
5689;DHT22;2869;50.432;8.680;2024-02-23T12:34:55;8.10;99.90
5689;DHT22;2869;50.432;8.680;2024-02-23T12:37:22;8.30;99.90
5689;DHT22;2869;50.432;8.680;2024-02-23T12:39:48;8.50;99.90
5689;DHT22;2869;50.432;8.680;2024-02-23T12:42:17;8.50;99.90
5689;DHT22;2869;50.432;8.680;2024-02-23T12:44:44;8.50;99.90
5689;DHT22;2869;50.432;8.680;2024-02-23T12:47:10;8.50;99.90
5689;DHT22;2869;50.432;8.680;2024-02-23T12:49:37;8.60;99.90
5689;DHT22;2869;50.432;8.680;2024-02-23T12:52:04;8.60;99.90
5689;DHT22;2869;50.432;8.680;2024-02-23T12:54:30;8.60;99.90
5689;DHT22;2869;50.432;8.680;2024-02-23T12:56:57;8.60;99.90
5689;DHT22;2869;50.432;8.680;2024-02-23T12:59:25;8.50;99.90
5689;DHT22;2869;50.432;8.680;2024-02-23T13:01:51;8.60;99.90
5689;DHT22;2869;50.432;8.680;2024-02-23T13:04:18;8.60;99.90
5689;DHT22;2869;50.432;8.680;2024-02-23T13:06:44;8.60;99.90
5689;DHT22;2869;50.432;8.680;2024-02-23T13:09:11;8.50;99.90
5689;DHT22;2869;50.432;8.680;2024-02-23T13:11:39;8.60;99.90
5689;DHT22;2869;50.432;8.680;2024-02-23T13:14:06;8.50;99.90
5689;DHT22;2869;50.432;8.680;2024-02-23T13:16:36;8.40;99.90
5689;DHT22;2869;50.432;8.680;2024-02-23T13:19:02;8.40;99.90
5689;DHT22;2869;50.432;8.680;2024-02-23T13:21:29;8.50;99.90
5689;DHT22;2869;50.432;8.680;2024-02-23T13:23:57;8.60;99.90
5689;DHT22;2869;50.432;8.680;2024-02-23T13:26:24;8.90;99.90
5689;DHT22;2869;50.432;8.680;2024-02-23T13:28:50;9.20;99.90
5689;DHT22;2869;50.432;8.680;2024-02-23T13:31:17;9.60;99.90
5689;DHT22;2869;50.432;8.680;2024-02-23T13:33:45;9.60;99.90
5689;DHT22;2869;50.432;8.680;2024-02-23T13:36:11;9.20;99.90
5689;DHT22;2869;50.432;8.680;2024-02-23T13:38:38;9.00;99.90
5689;DHT22;2869;50.432;8.680;2024-02-23T13:41:05;8.80;99.90
5689;DHT22;2869;50.432;8.680;2024-02-23T13:43:31;8.70;99.90
5689;DHT22;2869;50.432;8.680;2024-02-23T13:45:58;8.90;99.90
5689;DHT22;2869;50.432;8.680;2024-02-23T13:48:25;9.10;99.90
5689;DHT22;2869;50.432;8.680;2024-02-23T13:50:53;9.20;99.90
5689;DHT22;2869;50.432;8.680;2024-02-23T13:53:19;9.30;99.90
5689;DHT22;2869;50.432;8.680;2024-02-23T13:55:46;9.30;99.90
5689;DHT22;2869;50.432;8.680;2024-02-23T13:58:13;9.60;99.90
5689;DHT22;2869;50.432;8.680;2024-02-23T14:00:39;9.90;99.90
5689;DHT22;2869;50.432;8.680;2024-02-23T14:03:06;9.90;99.90
5689;DHT22;2869;50.432;8.680;2024-02-23T14:05:32;9.80;99.90
5689;DHT22;2869;50.432;8.680;2024-02-23T14:08:01;9.80;99.90
5689;DHT22;2869;50.432;8.680;2024-02-23T14:10:28;9.60;99.90
5689;DHT22;2869;50.432;8.680;2024-02-23T14:12:54;9.30;99.90
5689;DHT22;2869;50.432;8.680;2024-02-23T14:15:21;9.10;99.90
5689;DHT22;2869;50.432;8.680;2024-02-23T14:17:48;9.20;99.90
5689;DHT22;2869;50.432;8.680;2024-02-23T14:20:15;9.60;99.90
5689;DHT22;2869;50.432;8.680;2024-02-23T14:22:41;9.60;99.90
5689;DHT22;2869;50.432;8.680;2024-02-23T14:25:09;9.40;99.90
5689;DHT22;2869;50.432;8.680;2024-02-23T14:27:36;9.20;99.90
5689;DHT22;2869;50.432;8.680;2024-02-23T14:30:02;9.10;99.90
5689;DHT22;2869;50.432;8.680;2024-02-23T14:32:29;9.10;99.90
5689;DHT22;2869;50.432;8.680;2024-02-23T14:34:56;9.30;99.90
5689;DHT22;2869;50.432;8.680;2024-02-23T14:37:23;9.40;99.90
5689;DHT22;2869;50.432;8.680;2024-02-23T14:39:49;9.40;99.90
5689;DHT22;2869;50.432;8.680;2024-02-23T14:42:17;9.10;99.90
5689;DHT22;2869;50.432;8.680;2024-02-23T14:44:44;9.00;99.90
5689;DHT22;2869;50.432;8.680;2024-02-23T14:47:11;8.90;99.90
5689;DHT22;2869;50.432;8.680;2024-02-23T14:49:38;8.80;99.90
5689;DHT22;2869;50.432;8.680;2024-02-23T14:52:05;8.70;99.90
5689;DHT22;2869;50.432;8.680;2024-02-23T14:54:32;8.60;99.90
5689;DHT22;2869;50.432;8.680;2024-02-23T14:56:59;8.50;99.90
5689;DHT22;2869;50.432;8.680;2024-02-23T14:59:27;8.40;99.90
5689;DHT22;2869;50.432;8.680;2024-02-23T15:01:53;8.40;99.90
5689;DHT22;2869;50.432;8.680;2024-02-23T15:04:20;8.30;99.90
5689;DHT22;2869;50.432;8.680;2024-02-23T15:06:46;8.30;99.90
5689;DHT22;2869;50.432;8.680;2024-02-23T15:09:13;8.30;99.90
5689;DHT22;2869;50.432;8.680;2024-02-23T15:11:39;8.40;99.90
5689;DHT22;2869;50.432;8.680;2024-02-23T15:14:06;8.30;99.90
5689;DHT22;2869;50.432;8.680;2024-02-23T15:16:34;8.40;99.90
5689;DHT22;2869;50.432;8.680;2024-02-23T15:19:01;8.40;99.90
5689;DHT22;2869;50.432;8.680;2024-02-23T15:21:28;8.50;99.90
5689;DHT22;2869;50.432;8.680;2024-02-23T15:23:54;8.50;99.90
5689;DHT22;2869;50.432;8.680;2024-02-23T15:26:21;8.60;99.90
5689;DHT22;2869;50.432;8.680;2024-02-23T15:28:48;8.80;99.90
5689;DHT22;2869;50.432;8.680;2024-02-23T15:31:14;9.00;99.90
5689;DHT22;2869;50.432;8.680;2024-02-23T15:33:42;9.00;99.90
5689;DHT22;2869;50.432;8.680;2024-02-23T15:36:08;9.00;99.90
5689;DHT22;2869;50.432;8.680;2024-02-23T15:38:35;9.10;99.90
5689;DHT22;2869;50.432;8.680;2024-02-23T15:41:02;9.00;99.90
5689;DHT22;2869;50.432;8.680;2024-02-23T15:43:28;8.90;99.90
5689;DHT22;2869;50.432;8.680;2024-02-23T15:45:55;8.90;99.90
5689;DHT22;2869;50.432;8.680;2024-02-23T15:48:22;8.80;99.90
5689;DHT22;2869;50.432;8.680;2024-02-23T15:50:50;8.80;99.90
5689;DHT22;2869;50.432;8.680;2024-02-23T15:53:16;8.80;99.90
5689;DHT22;2869;50.432;8.680;2024-02-23T15:55:43;8.70;99.90
5689;DHT22;2869;50.432;8.680;2024-02-23T15:58:09;8.80;99.90
5689;DHT22;2869;50.432;8.680;2024-02-23T16:00:36;8.80;99.90
5689;DHT22;2869;50.432;8.680;2024-02-23T16:03:02;8.70;99.90
5689;DHT22;2869;50.432;8.680;2024-02-23T16:05:29;8.70;99.90
5689;DHT22;2869;50.432;8.680;2024-02-23T16:07:57;8.70;99.90
5689;DHT22;2869;50.432;8.680;2024-02-23T16:10:28;8.60;99.90
5689;DHT22;2869;50.432;8.680;2024-02-23T16:12:55;8.50;99.90
5689;DHT22;2869;50.432;8.680;2024-02-23T16:15:23;8.30;99.90